Time;durP1;ratioP1;P1;durP2;ratioP2;P2;SDS_P1;SDS_P2;PMS_P1;PMS_P2;Temp;Humidity;BMP_temperature;BMP_pressure;BME280_temperature;BME280_humidity;BME280_pressure;Samples;Min_cycle;Max_cycle;Signal;HPM_P1;HPM_P2
2023/04/17 00:00:52;;;;;;;;;7.25;5.00;;;;;12.10;46.17;101848.59;4976722;28;45381;-60
2023/04/17 00:03:18;;;;;;;;;4.75;3.75;;;;;12.11;46.44;101869.56;4977237;28;45635;-59
2023/04/17 00:05:45;;;;;;;;;4.50;4.25;;;;;12.09;46.58;101868.91;4974251;28;47446;-59
2023/04/17 00:08:11;;;;;;;;;32.80;22.80;;;;;12.10;46.60;101869.78;4957326;28;45480;-60
2023/04/17 00:10:36;;;;;;;;;6.00;4.40;;;;;12.07;47.13;101865.50;4957624;28;45408;-60
2023/04/17 00:13:02;;;;;;;;;10.00;8.25;;;;;11.98;46.62;101850.13;4957885;28;45631;-60
2023/04/17 00:15:27;;;;;;;;;8.25;4.75;;;;;11.98;46.88;101845.47;4957263;28;45496;-60
2023/04/17 00:17:53;;;;;;;;;4.50;4.50;;;;;11.87;46.79;101812.97;4992573;28;45805;-61
2023/04/17 00:20:18;;;;;;;;;5.00;3.50;;;;;12.06;47.19;101850.88;4996745;28;45721;-61
2023/04/17 00:22:43;;;;;;;;;5.00;5.00;;;;;11.90;47.19;101826.34;4996404;28;45542;-60
2023/04/17 00:25:11;;;;;;;;;3.00;3.00;;;;;11.97;47.20;101835.53;4978478;28;46496;-60
2023/04/17 00:27:37;;;;;;;;;5.00;5.00;;;;;11.97;47.07;101834.66;4995103;28;45377;-61
2023/04/17 00:30:03;;;;;;;;;9.00;5.00;;;;;11.96;47.51;101828.31;4996508;28;45175;-61
2023/04/17 00:32:29;;;;;;;;;6.75;4.25;;;;;12.08;47.07;101839.69;4996757;28;45489;-58
2023/04/17 00:34:54;;;;;;;;;4.25;4.25;;;;;12.10;47.68;101842.25;4996181;28;45508;-60
2023/04/17 00:37:20;;;;;;;;;10.00;6.75;;;;;11.98;47.90;101822.59;4996151;28;45707;-61
2023/04/17 00:39:45;;;;;;;;;3.00;3.00;;;;;11.96;47.41;101832.97;4996230;28;45355;-61
2023/04/17 00:42:11;;;;;;;;;6.50;6.50;;;;;12.02;47.62;101835.75;4996316;28;45386;-61
2023/04/17 00:44:36;;;;;;;;;8.00;7.00;;;;;11.82;47.59;101791.53;4995062;28;45441;-61
2023/04/17 00:47:02;;;;;;;;;7.25;4.75;;;;;12.07;47.70;101835.25;4996496;28;45356;-60
2023/04/17 00:49:27;;;;;;;;;4.25;4.25;;;;;12.06;48.02;101830.75;4996285;28;45410;-61
2023/04/17 00:51:52;;;;;;;;;6.50;6.00;;;;;12.04;47.83;101827.34;4990826;28;45387;-61
2023/04/17 00:54:19;;;;;;;;;5.75;5.25;;;;;12.00;48.18;101826.88;4991243;28;45423;-60
2023/04/17 00:56:44;;;;;;;;;5.00;5.00;;;;;11.93;48.58;101815.81;4975253;28;45283;-61
2023/04/17 00:59:11;;;;;;;;;5.50;5.00;;;;;11.93;48.19;101821.31;4974854;28;45542;-61
2023/04/17 01:01:36;;;;;;;;;8.20;8.20;;;;;11.80;48.31;101783.47;4976715;28;45370;-62
2023/04/17 01:04:03;;;;;;;;;5.25;5.00;;;;;11.95;48.84;101810.09;4975747;28;46578;-59
2023/04/17 01:06:29;;;;;;;;;7.60;6.20;;;;;11.93;48.64;101813.06;4975875;28;45355;-60
2023/04/17 01:08:54;;;;;;;;;6.00;6.00;;;;;11.90;49.02;101813.41;4949228;28;46086;-60
2023/04/17 01:11:20;;;;;;;;;5.00;5.00;;;;;11.89;48.67;101806.22;4970803;28;45399;-60
2023/04/17 01:13:46;;;;;;;;;6.60;6.60;;;;;11.92;48.76;101810.50;4975574;28;45914;-58
2023/04/17 01:16:12;;;;;;;;;9.00;8.00;;;;;11.92;48.75;101810.50;4976262;28;45913;-60
2023/04/17 01:18:38;;;;;;;;;5.00;4.00;;;;;11.91;48.81;101808.78;4990252;28;45442;-60
2023/04/17 01:21:03;;;;;;;;;7.00;6.25;;;;;11.91;48.76;101812.38;4994160;28;45554;-60
2023/04/17 01:23:29;;;;;;;;;7.75;4.50;;;;;11.92;48.73;101808.56;4995479;28;45463;-59
2023/04/17 01:25:54;;;;;;;;;5.25;5.00;;;;;11.89;49.32;101805.34;4982402;28;45404;-60
2023/04/17 01:28:20;;;;;;;;;8.75;8.75;;;;;11.84;49.12;101800.44;4975876;28;45387;-60
2023/04/17 01:30:45;;;;;;;;;8.00;7.00;;;;;11.83;49.43;101808.88;4975579;28;45361;-60
2023/04/17 01:33:11;;;;;;;;;4.50;4.50;;;;;11.58;49.42;101776.25;4975649;28;45379;-61
2023/04/17 01:35:36;;;;;;;;;8.75;7.00;;;;;11.49;49.72;101761.78;4975535;28;45418;-60
2023/04/17 01:38:02;;;;;;;;;8.50;4.75;;;;;11.73;49.92;101810.06;4975529;28;45392;-61
2023/04/17 01:40:27;;;;;;;;;5.25;5.25;;;;;11.65;50.28;101812.94;4974255;28;45817;-61
2023/04/17 01:42:53;;;;;;;;;7.50;5.25;;;;;11.53;50.08;101801.59;4974288;28;45824;-61
2023/04/17 01:45:18;;;;;;;;;5.75;5.75;;;;;11.55;50.18;101809.63;4975116;28;45411;-61
2023/04/17 01:47:44;;;;;;;;;1.75;1.75;;;;;11.57;50.52;101815.81;4975105;28;45394;-60
2023/04/17 01:50:10;;;;;;;;;6.25;5.00;;;;;11.59;50.39;101813.69;4975588;28;45487;-60
2023/04/17 01:52:35;;;;;;;;;11.20;10.20;;;;;11.61;50.15;101811.59;4973476;28;47072;-61
2023/04/17 01:55:02;;;;;;;;;5.00;5.00;;;;;11.60;50.31;101812.66;4974997;28;45396;-60
2023/04/17 01:57:28;;;;;;;;;6.40;6.40;;;;;11.53;50.82;101813.41;4975254;28;45337;-60
2023/04/17 01:59:53;;;;;;;;;9.00;5.00;;;;;11.57;50.64;101808.38;4973773;28;45291;-60
2023/04/17 02:02:21;;;;;;;;;6.25;6.25;;;;;11.57;50.00;101804.81;4973280;28;47489;-60
2023/04/17 02:04:47;;;;;;;;;7.20;7.20;;;;;11.62;50.60;101811.41;4973807;28;45301;-60
2023/04/17 02:07:12;;;;;;;;;10.25;8.00;;;;;11.60;50.81;101808.00;4975151;28;45403;-60
2023/04/17 02:09:38;;;;;;;;;6.25;6.25;;;;;11.61;50.54;101817.97;4964445;28;45775;-60
2023/04/17 02:12:03;;;;;;;;;7.25;7.25;;;;;11.58;50.75;101818.34;4967330;28;45646;-61
2023/04/17 02:14:30;;;;;;;;;6.00;5.25;;;;;11.41;50.94;101814.94;4973560;28;45477;-61
2023/04/17 02:16:55;;;;;;;;;8.00;8.00;;;;;11.38;50.97;101813.44;4974730;28;45447;-60
2023/04/17 02:19:21;;;;;;;;;7.75;7.75;;;;;11.41;50.85;101803.94;4992737;28;45477;-60
2023/04/17 02:21:47;;;;;;;;;10.00;9.20;;;;;11.43;51.17;101806.53;4994169;28;46614;-60
2023/04/17 02:24:12;;;;;;;;;4.00;4.00;;;;;11.35;51.20;101794.59;4994411;28;45351;-60
2023/04/17 02:26:38;;;;;;;;;8.25;7.00;;;;;11.20;51.32;101772.63;4992868;28;45411;-60
2023/04/17 02:29:03;;;;;;;;;8.50;8.00;;;;;11.42;51.46;101796.56;4994285;28;45581;-60
2023/04/17 02:31:29;;;;;;;;;11.00;8.50;;;;;11.43;51.15;101803.78;4994047;28;45647;-61
2023/04/17 02:33:54;;;;;;;;;7.40;7.40;;;;;11.44;51.26;101799.97;4994001;28;45446;-61
2023/04/17 02:36:20;;;;;;;;;9.75;9.50;;;;;11.43;51.62;101796.38;4992986;28;45459;-61
2023/04/17 02:38:46;;;;;;;;;8.25;6.25;;;;;11.43;51.18;101801.03;4994127;28;45361;-60
2023/04/17 02:41:11;;;;;;;;;11.00;9.25;;;;;11.41;51.97;101798.47;4994111;28;45998;-61
2023/04/17 02:43:37;;;;;;;;;7.25;7.00;;;;;11.38;51.76;101796.94;4994208;28;45228;-59
2023/04/17 02:46:02;;;;;;;;;6.75;5.00;;;;;11.38;52.32;101796.09;4994060;28;45157;-60
2023/04/17 02:48:28;;;;;;;;;9.75;5.50;;;;;10.95;51.66;101725.38;4993538;28;45259;-60
2023/04/17 02:50:53;;;;;;;;;8.25;8.25;;;;;11.40;51.60;101796.75;4993980;28;46357;-60
2023/04/17 02:53:19;;;;;;;;;7.75;7.75;;;;;11.35;51.82;101797.34;4994403;28;45342;-60
2023/04/17 02:55:44;;;;;;;;;8.00;7.00;;;;;11.33;52.06;101801.31;4976209;28;45471;-61
2023/04/17 02:58:10;;;;;;;;;9.00;8.00;;;;;11.35;51.93;101805.59;4994552;28;45356;-61
2023/04/17 03:00:35;;;;;;;;;8.00;8.00;;;;;11.37;52.43;101800.72;4976605;28;45536;-60
2023/04/17 03:03:02;;;;;;;;;9.50;7.50;;;;;11.34;52.00;101789.28;4993654;28;45513;-60
2023/04/17 03:05:28;;;;;;;;;12.80;9.60;;;;;11.33;53.03;101795.81;4994297;28;45324;-59
2023/04/17 03:07:55;;;;;;;;;9.00;9.00;;;;;11.30;52.67;101788.81;4994035;28;45516;-60
2023/04/17 03:10:20;;;;;;;;;11.20;10.80;;;;;11.27;53.16;101789.19;4993921;28;46631;-60
2023/04/17 03:12:45;;;;;;;;;12.75;9.25;;;;;11.22;52.74;101784.25;4992475;28;45307;-60
2023/04/17 03:15:11;;;;;;;;;12.50;11.00;;;;;10.97;53.06;101751.59;4994121;28;45378;-61
2023/04/17 03:17:37;;;;;;;;;10.75;10.00;;;;;11.20;53.22;101785.50;4976336;28;45481;-61
2023/04/17 03:20:03;;;;;;;;;13.50;12.00;;;;;11.22;52.92;101797.16;4975605;28;45745;-60
2023/04/17 03:22:28;;;;;;;;;11.80;10.60;;;;;11.20;52.79;101799.25;4976198;28;45400;-60
2023/04/17 03:24:53;;;;;;;;;11.75;11.75;;;;;11.15;52.91;101799.81;4975979;28;45467;-59
2023/04/17 03:27:23;;;;;;;;;9.75;9.75;;;;;11.12;52.98;101790.03;4963885;28;45581;-60
2023/04/17 03:29:50;;;;;;;;;8.00;8.00;;;;;10.99;53.68;101792.59;4994138;28;47966;-61
2023/04/17 03:32:16;;;;;;;;;13.00;13.00;;;;;10.98;53.56;101793.66;4995723;28;45332;-60
2023/04/17 03:34:41;;;;;;;;;16.40;13.40;;;;;11.01;53.54;101785.03;4996971;28;45319;-61
2023/04/17 03:37:07;;;;;;;;;16.25;13.75;;;;;10.95;54.29;101778.38;4997166;28;45194;-60
2023/04/17 03:39:32;;;;;;;;;12.25;11.75;;;;;11.00;53.85;101786.09;4995566;28;46472;-60
2023/04/17 03:41:57;;;;;;;;;14.00;10.50;;;;;11.00;54.06;101793.47;4996845;28;45220;-61
2023/04/17 03:44:23;;;;;;;;;11.00;7.50;;;;;10.91;53.50;101779.84;4996450;28;45234;-60
2023/04/17 03:46:49;;;;;;;;;14.00;11.75;;;;;11.03;54.35;101798.56;4997306;28;45197;-59
2023/04/17 03:49:14;;;;;;;;;8.25;8.25;;;;;11.09;54.36;101800.56;4996824;28;45431;-60
2023/04/17 03:51:41;;;;;;;;;11.75;11.75;;;;;11.11;53.86;101798.50;4996658;28;45401;-60
2023/04/17 03:54:07;;;;;;;;;14.40;11.80;;;;;11.09;54.31;101793.19;4996891;28;45349;-60
2023/04/17 03:56:32;;;;;;;;;12.75;10.00;;;;;10.61;53.46;101719.38;4996974;28;45309;-61
2023/04/17 03:58:58;;;;;;;;;15.75;12.00;;;;;11.15;54.02;101808.03;4996858;28;45939;-60
2023/04/17 04:01:27;;;;;;;;;14.50;12.25;;;;;11.17;54.00;101807.88;4996290;28;45416;-60
2023/04/17 04:03:53;;;;;;;;;13.00;11.40;;;;;11.15;54.66;101808.03;4996951;28;45382;-61
2023/04/17 04:06:19;;;;;;;;;11.20;10.80;;;;;11.10;53.76;101811.38;4997018;28;45676;-60
2023/04/17 04:08:45;;;;;;;;;14.25;12.50;;;;;11.14;53.97;101813.75;4996006;28;46458;-61
2023/04/17 04:11:10;;;;;;;;;18.80;16.00;;;;;11.08;53.53;101807.97;4996432;28;45718;-59
2023/04/17 04:13:36;;;;;;;;;16.00;14.00;;;;;10.73;54.01;101744.47;4996826;28;45479;-60
2023/04/17 04:16:01;;;;;;;;;15.75;11.75;;;;;10.92;53.59;101766.94;4996654;28;45489;-59
2023/04/17 04:18:27;;;;;;;;;15.75;15.25;;;;;10.89;53.94;101759.09;4984463;28;47478;-60
2023/04/17 04:20:52;;;;;;;;;16.50;14.50;;;;;11.17;53.92;101811.47;4976501;28;45515;-60
2023/04/17 04:23:19;;;;;;;;;14.25;12.25;;;;;11.14;54.92;101802.75;4976855;28;45372;-60
2023/04/17 04:25:45;;;;;;;;;16.60;16.60;;;;;11.09;54.28;101808.81;4976802;28;45811;-59
2023/04/17 04:28:12;;;;;;;;;17.75;14.25;;;;;11.05;54.59;101811.06;4974909;28;45449;-60
2023/04/17 04:30:37;;;;;;;;;16.40;14.20;;;;;10.76;54.68;101773.47;4975035;28;45504;-60
2023/04/17 04:33:07;;;;;;;;;15.50;15.00;;;;;10.74;55.37;101775.53;4975155;28;45300;-60
2023/04/17 04:35:32;;;;;;;;;18.20;17.20;;;;;10.91;56.21;101818.28;4976528;28;45367;-60
2023/04/17 04:38:01;;;;;;;;;23.25;17.75;;;;;10.78;56.37;101818.91;4976305;28;46704;-59
2023/04/17 04:40:34;;;;;;;;;21.60;17.00;;;;;10.82;56.44;101819.38;4975925;28;45565;-60
2023/04/17 04:43:00;;;;;;;;;22.40;18.40;;;;;10.66;55.98;101782.81;4976340;28;45324;-60
2023/04/17 04:45:25;;;;;;;;;24.00;17.00;;;;;10.84;55.81;101814.59;4976171;28;45537;-60
2023/04/17 04:47:51;;;;;;;;;18.75;17.25;;;;;10.69;56.67;101790.69;4976140;28;45678;-59
2023/04/17 04:50:16;;;;;;;;;19.75;18.00;;;;;10.96;56.85;101821.31;4976186;28;45263;-58
2023/04/17 04:52:42;;;;;;;;;25.50;21.75;;;;;10.81;57.39;101828.69;4975601;28;45396;-60
2023/04/17 04:55:08;;;;;;;;;24.25;22.00;;;;;10.68;56.69;101799.13;4976398;28;45170;-59
2023/04/17 04:57:33;;;;;;;;;23.75;21.00;;;;;10.77;57.84;101827.38;4958057;28;46475;-60
2023/04/17 04:59:59;;;;;;;;;21.75;17.50;;;;;10.64;57.50;101801.41;4958361;28;45779;-60
2023/04/17 05:02:24;;;;;;;;;21.75;20.50;;;;;10.80;57.29;101832.47;4974660;28;45422;-61
2023/04/17 05:04:50;;;;;;;;;19.25;15.50;;;;;10.75;57.55;101829.41;4975923;28;45216;-60
2023/04/17 05:07:16;;;;;;;;;25.40;23.40;;;;;10.79;56.75;101837.09;4975910;28;47622;-61
2023/04/17 05:09:42;;;;;;;;;20.25;16.75;;;;;10.74;57.22;101828.59;4974235;28;45415;-61
2023/04/17 05:12:07;;;;;;;;;21.00;19.00;;;;;10.47;56.96;101797.09;4947566;28;45476;-61
2023/04/17 05:14:32;;;;;;;;;20.25;19.00;;;;;10.55;58.43;101828.06;4975579;28;45414;-60
2023/04/17 05:16:58;;;;;;;;;24.25;20.75;;;;;10.59;58.48;101828.53;4974526;28;45738;-61
2023/04/17 05:19:23;;;;;;;;;22.00;18.25;;;;;10.44;57.82;101826.63;4992360;28;45434;-61
2023/04/17 05:21:49;;;;;;;;;16.25;16.25;;;;;10.47;58.58;101838.25;4995392;28;45499;-61
2023/04/17 05:24:15;;;;;;;;;21.50;21.25;;;;;10.55;58.29;101836.28;4995605;28;45325;-61
2023/04/17 05:26:40;;;;;;;;;25.50;24.00;;;;;10.60;58.60;101837.63;4994892;28;46397;-59
2023/04/17 05:29:06;;;;;;;;;28.25;21.00;;;;;10.56;58.14;101821.53;4981922;28;45357;-61
2023/04/17 05:31:31;;;;;;;;;23.50;20.75;;;;;10.53;58.38;101810.06;4975396;28;45264;-60
2023/04/17 05:33:56;;;;;;;;;28.25;24.50;;;;;10.77;57.43;101830.09;4974173;28;45289;-61
2023/04/17 05:36:22;;;;;;;;;22.75;20.50;;;;;10.83;57.23;101840.31;4975278;28;46055;-61
2023/04/17 05:38:48;;;;;;;;;22.75;20.00;;;;;10.85;57.85;101841.00;4974715;28;45374;-61
2023/04/17 05:41:13;;;;;;;;;27.50;19.00;;;;;10.87;57.65;101835.34;4973844;28;45387;-62
2023/04/17 05:43:39;;;;;;;;;25.75;21.25;;;;;10.88;57.59;101835.13;4976012;28;46060;-61
2023/04/17 05:46:04;;;;;;;;;21.25;18.25;;;;;10.68;57.29;101805.44;4975206;28;46346;-61
2023/04/17 05:48:30;;;;;;;;;34.00;23.00;;;;;10.89;57.56;101834.06;4990787;28;45510;-60
2023/04/17 05:50:55;;;;;;;;;21.00;19.75;;;;;10.93;57.33;101838.16;4975401;28;45399;-61
2023/04/17 05:53:21;;;;;;;;;22.25;22.25;;;;;10.82;57.48;101812.03;4975480;28;45586;-60
2023/04/17 05:55:46;;;;;;;;;21.75;20.50;;;;;10.98;57.63;101829.34;4975308;28;46244;-60
2023/04/17 05:58:12;;;;;;;;;27.00;22.25;;;;;10.98;57.42;101840.34;4973983;28;45381;-60
2023/04/17 06:00:37;;;;;;;;;26.25;23.50;;;;;10.97;57.34;101831.28;4975432;28;45467;-61
2023/04/17 06:03:04;;;;;;;;;27.25;22.75;;;;;10.79;57.71;101811.53;4975175;28;45351;-60
2023/04/17 06:05:30;;;;;;;;;27.80;26.00;;;;;10.75;58.19;101799.22;4975211;28;45655;-60
2023/04/17 06:07:55;;;;;;;;;27.25;25.75;;;;;10.98;58.48;101843.97;4975126;28;45311;-59
2023/04/17 06:10:21;;;;;;;;;30.00;25.75;;;;;11.04;58.38;101845.09;4974986;28;45307;-61
2023/04/17 06:12:46;;;;;;;;;35.50;31.00;;;;;11.04;58.23;101842.34;4975587;28;45150;-61
2023/04/17 06:15:12;;;;;;;;;23.75;22.50;;;;;11.04;58.46;101845.09;4972583;28;45999;-61
2023/04/17 06:17:38;;;;;;;;;29.50;26.00;;;;;10.83;58.53;101810.09;5007064;28;45496;-61
2023/04/17 06:20:10;;;;;;;;;32.50;29.25;;;;;11.06;58.39;101836.66;4973309;28;45312;-61
2023/04/17 06:22:36;;;;;;;;;27.40;24.60;;;;;10.86;58.19;101809.75;4973977;28;45556;-61
2023/04/17 06:25:02;;;;;;;;;30.80;25.40;;;;;10.99;58.27;101836.56;4974619;28;46492;-61
2023/04/17 06:27:28;;;;;;;;;35.50;31.00;;;;;10.86;58.90;101826.22;4973373;28;45498;-61
2023/04/17 06:29:53;;;;;;;;;33.25;28.75;;;;;10.44;60.22;101784.59;4973889;28;45406;-60
2023/04/17 06:32:19;;;;;;;;;32.75;24.00;;;;;10.91;59.11;101848.50;4975043;28;45773;-60
2023/04/17 06:34:44;;;;;;;;;35.00;26.75;;;;;10.90;59.49;101855.03;4974737;28;45780;-60
2023/04/17 06:37:10;;;;;;;;;34.00;30.25;;;;;10.99;59.28;101858.53;4974988;28;45409;-61
2023/04/17 06:39:35;;;;;;;;;29.25;27.00;;;;;11.05;59.31;101857.78;4974935;28;45440;-59
2023/04/17 06:42:01;;;;;;;;;36.00;30.00;;;;;11.08;59.52;101851.06;4975002;28;45598;-61
2023/04/17 06:44:27;;;;;;;;;36.00;34.00;;;;;11.07;59.60;101852.09;4973390;28;46195;-60
2023/04/17 06:46:53;;;;;;;;;32.25;27.00;;;;;11.04;59.35;101860.75;4975225;28;45300;-61
2023/04/17 06:49:18;;;;;;;;;32.00;28.25;;;;;11.12;59.44;101864.22;4974989;28;45401;-61
2023/04/17 06:51:44;;;;;;;;;38.25;32.00;;;;;11.11;58.85;101861.69;4977387;28;45355;-61
2023/04/17 06:54:10;;;;;;;;;37.40;29.00;;;;;11.11;59.56;101868.03;4978318;28;46429;-60
2023/04/17 06:56:36;;;;;;;;;33.20;29.20;;;;;11.05;60.15;101866.03;4978154;28;45364;-60
2023/04/17 06:59:02;;;;;;;;;42.50;35.00;;;;;11.01;59.31;101853.72;4978227;28;45157;-58
2023/04/17 07:01:30;;;;;;;;;42.60;34.20;;;;;11.10;60.11;101870.97;4978311;28;45462;-61
2023/04/17 07:03:55;;;;;;;;;33.20;30.00;;;;;11.03;60.04;101876.34;4976658;28;45427;-60
2023/04/17 07:06:22;;;;;;;;;36.25;32.75;;;;;11.03;60.11;101876.34;4977478;28;45486;-60
2023/04/17 07:08:47;;;;;;;;;38.40;31.00;;;;;11.07;60.32;101872.19;4977950;28;45257;-62
2023/04/17 07:11:13;;;;;;;;;39.25;32.50;;;;;10.89;60.25;101836.81;4978259;28;45406;-60
2023/04/17 07:13:38;;;;;;;;;37.25;34.25;;;;;10.88;59.69;101829.63;4977611;28;46541;-61
2023/04/17 07:16:04;;;;;;;;;35.00;27.25;;;;;11.14;59.39;101865.97;4963919;28;45388;-60
2023/04/17 07:18:30;;;;;;;;;36.40;34.80;;;;;11.21;60.29;101883.41;4978341;28;45351;-61
2023/04/17 07:20:56;;;;;;;;;31.50;30.25;;;;;11.14;60.51;101886.03;4996240;28;45293;-60
2023/04/17 07:23:21;;;;;;;;;37.25;29.00;;;;;11.14;60.19;101877.78;4993976;28;46071;-61
2023/04/17 07:25:47;;;;;;;;;36.25;31.00;;;;;11.16;60.02;101881.19;4975774;28;45244;-60
2023/04/17 07:28:13;;;;;;;;;43.25;35.50;;;;;11.20;60.95;101893.53;4977704;28;45196;-59
2023/04/17 07:30:40;;;;;;;;;36.00;31.80;;;;;11.11;60.54;101887.25;4976450;28;45877;-60
2023/04/17 07:33:05;;;;;;;;;43.40;35.80;;;;;11.28;60.39;101899.97;4975981;28;46750;-60
2023/04/17 07:35:31;;;;;;;;;48.25;35.50;;;;;11.05;60.32;101863.28;4976095;28;45455;-60
2023/04/17 07:37:57;;;;;;;;;41.50;35.50;;;;;11.27;61.17;101903.75;4976014;28;45407;-61
2023/04/17 07:40:23;;;;;;;;;41.00;34.80;;;;;11.09;60.17;101889.34;4976029;28;45463;-61
2023/04/17 07:42:49;;;;;;;;;42.75;35.00;;;;;11.25;60.76;101904.81;4977401;28;46257;-62
2023/04/17 07:45:14;;;;;;;;;36.50;34.00;;;;;11.24;60.60;101900.38;4977445;28;45236;-60
2023/04/17 07:47:40;;;;;;;;;38.00;34.75;;;;;11.20;61.09;101910.00;4977022;28;45383;-59
2023/04/17 07:50:06;;;;;;;;;48.75;37.25;;;;;11.13;61.34;101898.06;4957208;28;45940;-60
2023/04/17 07:52:31;;;;;;;;;47.20;35.40;;;;;11.29;60.41;101901.66;4978092;28;45458;-61
2023/04/17 07:54:57;;;;;;;;;35.50;34.00;;;;;11.28;60.88;101900.84;4976075;28;45413;-61
2023/04/17 07:57:25;;;;;;;;;36.00;32.75;;;;;11.28;60.94;101899.97;4973790;28;45423;-61
2023/04/17 07:59:52;;;;;;;;;41.80;30.00;;;;;11.14;60.46;101868.72;4959303;28;45370;-61
2023/04/17 08:02:18;;;;;;;;;40.00;34.20;;;;;11.20;60.48;101882.53;4974980;28;47370;-60
2023/04/17 08:04:44;;;;;;;;;42.20;37.00;;;;;11.42;60.71;101907.38;4976284;28;45300;-60
2023/04/17 08:07:10;;;;;;;;;38.25;34.25;;;;;11.41;60.46;101900.16;4976509;28;45248;-59
2023/04/17 08:09:36;;;;;;;;;35.60;32.60;;;;;11.47;60.18;101906.81;4985908;28;45595;-59
2023/04/17 08:12:02;;;;;;;;;36.75;33.00;;;;;11.39;60.62;101907.75;4995179;28;45840;-62
2023/04/17 08:14:27;;;;;;;;;40.00;32.80;;;;;11.39;60.41;101905.00;4996073;28;45447;-62
2023/04/17 08:16:53;;;;;;;;;38.75;35.00;;;;;11.32;61.13;101893.91;4983078;28;45717;-62
2023/04/17 08:19:18;;;;;;;;;42.25;34.00;;;;;11.43;60.65;101908.22;4944171;28;45582;-62
2023/04/17 08:21:46;;;;;;;;;46.50;36.00;;;;;11.46;60.97;101908.69;4966460;28;46999;-61
2023/04/17 08:24:12;;;;;;;;;43.00;34.80;;;;;11.56;60.26;101905.66;4973360;28;45557;-60
2023/04/17 08:26:37;;;;;;;;;34.00;31.50;;;;;11.60;60.32;101906.16;4961044;28;45514;-61
2023/04/17 08:29:03;;;;;;;;;40.50;34.75;;;;;11.45;60.91;101908.88;4972474;28;45600;-59
2023/04/17 08:31:29;;;;;;;;;45.25;36.50;;;;;11.22;61.12;101863.94;4975094;28;46484;-60
2023/04/17 08:33:56;;;;;;;;;41.40;32.40;;;;;11.51;60.97;101906.25;4948100;28;45428;-58
2023/04/17 08:50:55;;;;;;;;;49.40;39.00;;;;;11.27;62.25;101906.50;4957648;24;46572;-59
2023/04/17 08:53:20;;;;;;;;;57.50;42.25;;;;;11.23;62.58;101901.41;4765410;29;45804;-54
2023/04/17 08:55:46;;;;;;;;;51.75;41.25;;;;;10.79;62.37;101841.75;4750226;29;45411;-58
2023/04/17 08:58:13;;;;;;;;;55.75;39.00;;;;;11.31;62.16;101905.94;4753309;29;46144;-59
2023/04/17 09:00:40;;;;;;;;;54.40;42.40;;;;;11.36;61.66;101899.88;4749684;29;45505;-57
2023/04/17 09:03:07;;;;;;;;;53.20;42.80;;;;;11.40;61.66;101892.97;4748370;29;45997;-55
2023/04/17 09:05:32;;;;;;;;;51.00;39.60;;;;;11.44;61.48;101897.06;4749462;29;45857;-58
2023/04/17 09:08:15;;;;;;;;;54.00;42.75;;;;;11.55;61.78;101905.84;4739092;29;45523;-56
2023/04/17 09:10:48;;;;;;;;;50.60;38.20;;;;;11.66;61.06;101908.13;4760104;29;45757;-59
2023/04/17 09:13:15;;;;;;;;;49.80;42.00;;;;;11.76;60.65;101910.59;4736625;29;47134;-58
2023/04/17 09:15:41;;;;;;;;;53.00;40.60;;;;;11.84;60.57;101904.13;4766843;29;45730;-56
2023/04/17 09:18:24;;;;;;;;;54.50;41.75;;;;;11.65;60.15;101860.50;4749688;29;45391;-57
2023/04/17 09:20:50;;;;;;;;;54.80;45.20;;;;;11.84;60.86;101904.13;4733975;29;45391;-57
2023/04/17 09:23:15;;;;;;;;;53.00;40.40;;;;;11.58;60.46;101869.75;4760759;29;45468;-53
2023/04/17 09:25:41;;;;;;;;;59.50;44.00;;;;;11.84;60.61;101901.38;4750637;29;45452;-55
2023/04/17 09:28:12;;;;;;;;;49.00;39.00;;;;;11.68;60.04;101856.53;4751470;29;45428;-56
2023/04/17 09:30:40;;;;;;;;;52.20;41.80;;;;;11.96;59.90;101905.34;4736572;29;45981;-56
2023/04/17 09:33:07;;;;;;;;;54.00;41.60;;;;;11.89;60.33;101901.63;4766236;29;45875;-56
2023/04/17 09:35:33;;;;;;;;;55.80;38.80;;;;;12.04;59.44;101902.50;4750093;29;45412;-53
2023/04/17 09:37:58;;;;;;;;;50.25;38.75;;;;;12.11;59.54;101901.75;4767028;29;45839;-56
2023/04/17 09:40:24;;;;;;;;;58.75;41.75;;;;;12.15;59.85;101906.66;4750759;29;45669;-57
2023/04/17 09:43:03;;;;;;;;;54.60;42.80;;;;;12.18;59.22;101898.00;4751181;29;45472;-56
2023/04/17 09:45:36;;;;;;;;;54.00;39.40;;;;;12.15;59.37;101905.78;4759770;29;45391;-56
2023/04/17 09:48:04;;;;;;;;;54.20;42.00;;;;;11.97;59.68;101895.19;4729569;29;45433;-56
2023/04/17 09:50:30;;;;;;;;;38.20;33.20;;;;;11.95;60.00;101900.03;4711731;29;45535;-56
2023/04/17 09:52:55;;;;;;;;;47.75;37.25;;;;;11.93;60.09;101883.72;4750330;29;46645;-56
2023/04/17 09:55:22;;;;;;;;;52.00;41.25;;;;;12.05;59.90;101886.84;4745876;29;45859;-58
2023/04/17 09:57:54;;;;;;;;;52.40;41.20;;;;;11.99;59.65;101880.19;4750138;29;45448;-55
2023/04/17 10:00:20;;;;;;;;;52.60;38.80;;;;;11.96;59.70;101861.34;4772119;29;45387;-53
2023/04/17 10:02:52;;;;;;;;;49.00;39.80;;;;;12.25;59.68;101888.97;4785075;29;45674;-56
2023/04/17 10:05:19;;;;;;;;;51.20;40.40;;;;;12.31;59.43;101894.56;4747274;29;46798;-56
2023/04/17 10:07:45;;;;;;;;;43.20;34.00;;;;;12.32;59.32;101890.75;4742957;29;45477;-52
2023/04/17 10:10:12;;;;;;;;;51.80;42.20;;;;;12.32;59.60;101898.16;4729941;29;45734;-57
2023/04/17 10:12:37;;;;;;;;;54.80;44.00;;;;;12.20;59.62;101901.44;4707803;29;46120;-57
2023/04/17 10:15:07;;;;;;;;;52.75;39.50;;;;;12.09;60.03;101898.31;4724828;29;45515;-57
2023/04/17 10:17:35;;;;;;;;;55.40;40.40;;;;;12.20;60.00;101903.31;4723341;29;45780;-52
2023/04/17 10:20:22;;;;;;;;;56.00;44.40;;;;;12.20;60.14;101903.31;4743025;29;45935;-56
2023/04/17 10:22:53;;;;;;;;;45.40;38.00;;;;;12.05;60.38;101895.97;4745784;29;45519;-58
2023/04/17 10:25:25;;;;;;;;;53.40;39.20;;;;;12.06;60.86;101892.16;4748405;29;45424;-56
2023/04/17 10:28:09;;;;;;;;;56.40;39.40;;;;;12.07;60.67;101888.34;4736329;29;45527;-53
2023/04/17 10:30:52;;;;;;;;;49.80;38.80;;;;;12.18;60.35;101888.91;4732300;29;45885;-54
2023/04/17 10:33:20;;;;;;;;;45.60;36.80;;;;;12.20;60.32;101881.28;4753194;29;46608;-53
2023/04/17 10:35:46;;;;;;;;;55.80;41.40;;;;;12.23;59.86;101883.69;4737329;29;45377;-57
2023/04/17 10:38:11;;;;;;;;;49.50;38.50;;;;;12.27;60.32;101887.72;4743205;29;45524;-57
2023/04/17 10:40:37;;;;;;;;;54.75;39.75;;;;;12.30;60.19;101898.38;4736689;29;45857;-58
2023/04/17 10:43:10;;;;;;;;;52.25;39.25;;;;;12.17;60.41;101877.03;4741819;29;46285;-53
2023/04/17 10:46:06;;;;;;;;;55.80;43.00;;;;;12.29;60.69;101891.16;4750238;29;45924;-55
2023/04/17 10:48:36;;;;;;;;;50.60;39.60;;;;;12.31;60.32;101882.69;4742677;29;45365;-56
2023/04/17 10:51:20;;;;;;;;;54.20;41.00;;;;;12.25;60.19;101889.84;4744745;29;45575;-56
2023/04/17 10:53:55;;;;;;;;;55.80;41.20;;;;;12.23;60.35;101880.94;4751103;29;46427;-54
2023/04/17 10:56:25;;;;;;;;;51.60;40.80;;;;;12.19;60.52;101871.34;4744754;29;45673;-52
2023/04/17 10:59:02;;;;;;;;;50.80;39.00;;;;;12.14;60.96;101885.69;4751550;29;45614;-56
2023/04/17 11:01:36;;;;;;;;;53.40;40.80;;;;;12.14;60.96;101887.59;4753588;29;45591;-54
2023/04/17 11:04:03;;;;;;;;;56.40;40.80;;;;;11.80;60.79;101827.50;4753353;29;45641;-55
2023/04/17 11:06:32;;;;;;;;;51.40;39.60;;;;;12.06;61.08;101880.28;4737391;29;45452;-55
2023/04/17 11:08:58;;;;;;;;;44.40;37.20;;;;;11.85;61.45;101853.56;4753807;29;45484;-54
2023/04/17 11:11:24;;;;;;;;;52.50;42.25;;;;;12.03;61.39;101881.56;4752384;29;45406;-55
2023/04/17 11:13:50;;;;;;;;;51.25;38.00;;;;;12.09;61.17;101877.16;4726622;29;47632;-54
2023/04/17 11:16:15;;;;;;;;;45.00;37.00;;;;;11.87;61.45;101843.22;4753065;29;45384;-54
2023/04/17 11:18:42;;;;;;;;;44.00;36.00;;;;;11.90;61.54;101859.34;4720303;30;45459;-55
2023/04/17 11:21:14;;;;;;;;;49.20;37.80;;;;;11.88;61.17;101845.78;4745985;29;45537;-58
2023/04/17 11:23:39;;;;;;;;;47.80;35.60;;;;;12.08;60.88;101869.97;4727431;29;46487;-56
2023/04/17 11:26:06;;;;;;;;;45.50;37.00;;;;;12.24;60.63;101860.59;4754124;29;45434;-55